Time;durP1;ratioP1;P1;durP2;ratioP2;P2;SDS_P1;SDS_P2;PMS_P1;PMS_P2;Temp;Humidity;BMP_temperature;BMP_pressure;BME280_temperature;BME280_humidity;BME280_pressure;Samples;Min_cycle;Max_cycle;Signal;HPM_P1;HPM_P2
2023/11/30 00:00:09;;;;;;;0.70;0.70;;;;;;;-0.04;89.39;95574.63;29373;264;63005;-55
2023/11/30 00:00:40;;;;;;;0.70;0.70;;;;;;;-0.06;89.36;95564.22;29373;206;63009;-54
2023/11/30 00:01:12;;;;;;;0.60;0.60;;;;;;;-0.06;89.60;95568.75;29373;205;63004;-54
2023/11/30 00:01:43;;;;;;;0.70;0.70;;;;;;;-0.07;89.64;95567.94;29373;209;63009;-54
2023/11/30 00:02:15;;;;;;;0.70;0.70;;;;;;;-0.06;89.80;95572.22;29373;236;63004;-54
2023/11/30 00:02:46;;;;;;;0.70;0.70;;;;;;;-0.06;89.66;95566.88;29395;218;63008;-54
2023/11/30 00:03:17;;;;;;;0.70;0.70;;;;;;;-0.06;89.76;95571.41;29395;198;63004;-55
2023/11/30 00:04:57;;;;;;;0.79;0.79;;;;;;;-0.04;89.32;95570.09;88174;215;64005;-54
2023/11/30 00:05:28;;;;;;;0.70;0.70;;;;;;;-0.04;89.47;95574.63;29394;219;64008;-54
2023/11/30 00:05:59;;;;;;;0.70;0.70;;;;;;;-0.03;89.47;95576.22;29373;202;63005;-54
2023/11/30 00:06:37;;;;;;;0.68;0.68;;;;;;;-0.04;89.82;95575.41;29372;221;64009;-54
2023/11/30 00:07:12;;;;;;;0.70;0.70;;;;;;;-0.04;90.02;95577.28;29373;282;63005;-55
2023/11/30 00:07:43;;;;;;;0.70;0.70;;;;;;;-0.04;89.73;95577.28;29395;278;63009;-54
2023/11/30 00:08:14;;;;;;;0.70;0.70;;;;;;;-0.04;89.71;95575.41;29395;202;63005;-54
2023/11/30 00:08:46;;;;;;;0.70;0.70;;;;;;;-0.01;89.65;95576.78;29395;213;63009;-54
2023/11/30 00:09:17;;;;;;;0.70;0.70;;;;;;;0.00;89.24;95573.81;29394;223;64009;-54
2023/11/30 00:09:51;;;;;;;0.70;0.70;;;;;;;-0.01;89.32;95574.91;29372;197;63009;-54
2023/11/30 00:10:24;;;;;;;0.70;0.70;;;;;;;-0.02;88.90;95572.50;29373;216;63004;-54
2023/11/30 00:10:55;;;;;;;0.70;0.70;;;;;;;-0.02;89.07;95567.16;29373;236;63018;-53
2023/11/30 00:11:26;;;;;;;0.70;0.70;;;;;;;0.00;88.98;95570.38;29395;321;63004;-53
2023/11/30 00:11:57;;;;;;;0.62;0.62;;;;;;;0.01;88.91;95566.63;29373;282;63009;-53
2023/11/30 00:12:30;;;;;;;0.70;0.70;;;;;;;-0.01;88.82;95566.91;29373;253;63004;-53
2023/11/30 00:13:03;;;;;;;0.70;0.70;;;;;;;-0.01;88.81;95566.91;29395;214;63008;-53
2023/11/30 00:13:35;;;;;;;0.70;0.70;;;;;;;-0.01;89.06;95561.56;29373;202;63005;-53
2023/11/30 00:14:06;;;;;;;0.70;0.70;;;;;;;0.02;88.66;95567.44;29395;200;63009;-53
2023/11/30 00:14:37;;;;;;;0.70;0.70;;;;;;;0.02;88.68;95560.22;29394;204;64009;-54
2023/11/30 00:15:09;;;;;;;0.60;0.60;;;;;;;0.06;89.12;95563.19;29373;219;63009;-54
2023/11/30 00:15:41;;;;;;;0.70;0.70;;;;;;;0.04;88.85;95560.78;29373;230;63005;-53
2023/11/30 00:16:12;;;;;;;0.70;0.70;;;;;;;0.04;88.61;95559.97;29373;205;63009;-54
2023/11/30 00:16:44;;;;;;;0.70;0.70;;;;;;;0.03;88.83;95563.69;29373;204;63005;-54
2023/11/30 00:17:15;;;;;;;0.70;0.70;;;;;;;0.01;88.97;95561.28;29395;337;63009;-54
2023/11/30 00:17:48;;;;;;;0.68;0.68;;;;;;;-0.01;88.89;95564.25;29373;315;63008;-54
2023/11/30 00:18:19;;;;;;;0.60;0.60;;;;;;;-0.02;88.96;95559.97;29373;248;63009;-54
2023/11/30 00:18:50;;;;;;;0.70;0.70;;;;;;;-0.02;88.84;95557.31;29373;228;63004;-54
2023/11/30 00:19:21;;;;;;;0.70;0.70;;;;;;;-0.03;89.34;95555.69;29373;210;63009;-53
2023/11/30 00:19:53;;;;;;;0.70;0.70;;;;;;;-0.04;89.58;95558.63;29394;245;64009;-53
2023/11/30 00:20:24;;;;;;;0.70;0.70;;;;;;;-0.04;89.55;95558.63;29395;239;63008;-54
2023/11/30 00:20:55;;;;;;;0.60;0.60;;;;;;;-0.04;90.03;95556.75;29373;214;63004;-55
2023/11/30 00:21:26;;;;;;;0.60;0.60;;;;;;;-0.04;89.79;95559.41;29395;320;63009;-54
2023/11/30 00:21:57;;;;;;;0.62;0.62;;;;;;;-0.04;89.96;95555.94;29373;241;63005;-54
2023/11/30 00:22:28;;;;;;;0.60;0.60;;;;;;;-0.03;89.85;95561.03;29373;209;63009;-53
2023/11/30 00:23:03;;;;;;;0.60;0.60;;;;;;;-0.03;90.25;95558.37;29373;327;63005;-53
2023/11/30 00:23:36;;;;;;;0.70;0.70;;;;;;;-0.03;89.73;95560.22;29373;238;63009;-53
2023/11/30 00:24:07;;;;;;;0.65;0.65;;;;;;;-0.02;90.02;95561.84;29373;217;63005;-53
2023/11/30 00:24:38;;;;;;;0.70;0.70;;;;;;;-0.03;89.78;95555.69;29373;234;63010;-53
2023/11/30 00:25:10;;;;;;;0.60;0.60;;;;;;;-0.01;89.66;95552.78;29371;197;64009;-53
2023/11/30 00:25:41;;;;;;;0.68;0.68;;;;;;;0.00;89.58;95555.16;29395;198;63009;-71
2023/11/30 00:26:13;;;;;;;0.70;0.70;;;;;;;0.00;89.33;95554.38;29373;263;63004;-54
2023/11/30 00:26:44;;;;;;;0.70;0.70;;;;;;;0.00;89.26;95549.03;29373;218;63023;-53
2023/11/30 00:27:15;;;;;;;0.70;0.70;;;;;;;-0.01;89.40;95553.56;29373;225;63004;-54
2023/11/30 00:27:48;;;;;;;0.70;0.70;;;;;;;-0.01;89.75;95553.56;29395;215;63008;-54
2023/11/30 00:28:19;;;;;;;0.70;0.70;;;;;;;-0.01;90.14;95550.09;29395;226;63004;-54
2023/11/30 00:28:51;;;;;;;0.62;0.62;;;;;;;-0.02;89.97;95553.84;29395;227;63009;-54
2023/11/30 00:29:22;;;;;;;0.70;0.70;;;;;;;-0.02;89.77;95551.16;29395;374;63005;-54
2023/11/30 00:29:53;;;;;;;0.70;0.70;;;;;;;-0.04;90.36;95548.75;29373;204;63009;-54
2023/11/30 00:30:24;;;;;;;0.70;0.70;;;;;;;-0.05;89.81;95549.81;29394;338;64009;-73
2023/11/30 00:30:56;;;;;;;0.62;0.62;;;;;;;-0.05;89.91;95546.34;29373;206;63009;-54
2023/11/30 00:31:27;;;;;;;0.60;0.60;;;;;;;-0.05;90.15;95544.47;29373;202;63005;-54
2023/11/30 00:31:58;;;;;;;0.70;0.70;;;;;;;-0.05;89.84;95541.00;29373;214;63009;-54
2023/11/30 00:32:30;;;;;;;0.68;0.68;;;;;;;-0.05;90.08;95544.47;29373;209;63004;-54
2023/11/30 00:33:04;;;;;;;0.70;0.70;;;;;;;-0.06;90.26;95540.22;29373;220;63015;-53
2023/11/30 00:33:36;;;;;;;0.70;0.70;;;;;;;-0.06;90.39;95540.22;29395;203;63000;-53
2023/11/30 00:34:07;;;;;;;0.70;0.70;;;;;;;-0.06;90.40;95539.41;29374;234;63009;-54
2023/11/30 00:34:38;;;;;;;0.70;0.70;;;;;;;-0.06;90.40;95539.41;29373;228;63004;-54
2023/11/30 00:35:10;;;;;;;0.60;0.60;;;;;;;-0.06;89.92;95540.22;29373;256;63008;-54
2023/11/30 00:35:41;;;;;;;0.70;0.70;;;;;;;-0.06;89.98;95540.22;29371;326;64009;-54
2023/11/30 00:36:12;;;;;;;0.60;0.60;;;;;;;-0.06;90.50;95542.87;29373;298;63009;-71
2023/11/30 00:36:44;;;;;;;0.70;0.70;;;;;;;-0.05;90.40;95536.47;29373;239;63005;-54
2023/11/30 00:37:15;;;;;;;0.70;0.70;;;;;;;-0.04;90.58;95532.75;29373;284;63014;-72
2023/11/30 00:37:46;;;;;;;0.60;0.60;;;;;;;-0.04;90.81;95538.09;29373;292;63005;-54
2023/11/30 00:38:17;;;;;;;0.70;0.70;;;;;;;-0.03;90.81;95539.69;29373;252;63009;-73
2023/11/30 00:38:49;;;;;;;0.70;0.70;;;;;;;-0.03;90.56;95537.03;29373;212;63005;-54
2023/11/30 00:39:20;;;;;;;0.70;0.70;;;;;;;-0.04;90.52;95532.75;29373;203;63009;-54
2023/11/30 00:39:52;;;;;;;0.70;0.70;;;;;;;-0.03;90.14;95533.56;29373;221;63004;-72
2023/11/30 00:40:23;;;;;;;0.70;0.70;;;;;;;-0.04;90.23;95535.44;29373;285;63009;-54
2023/11/30 00:40:54;;;;;;;0.70;0.70;;;;;;;-0.05;89.92;95530.34;29371;224;64009;-54
2023/11/30 00:41:26;;;;;;;0.70;0.70;;;;;;;-0.06;90.09;95526.87;29373;231;63009;-54
2023/11/30 00:41:57;;;;;;;0.70;0.70;;;;;;;-0.07;89.99;95527.94;29372;236;64004;-54
2023/11/30 00:42:28;;;;;;;0.60;0.60;;;;;;;-0.05;90.18;95528.47;29395;230;63008;-54
2023/11/30 00:42:59;;;;;;;0.60;0.60;;;;;;;-0.04;89.75;95526.63;29395;243;63005;-54
2023/11/30 00:43:31;;;;;;;0.70;0.70;;;;;;;-0.04;90.10;95527.44;29394;252;64014;-54
2023/11/30 00:44:02;;;;;;;0.70;0.70;;;;;;;-0.03;89.98;95522.91;29395;299;63005;-54
2023/11/30 00:44:33;;;;;;;0.70;0.70;;;;;;;-0.05;90.17;95520.47;29395;221;63009;-54
2023/11/30 00:45:05;;;;;;;0.70;0.70;;;;;;;-0.05;90.11;95520.47;29373;307;63005;-54
2023/11/30 00:45:39;;;;;;;0.60;0.60;;;;;;;-0.05;89.90;95519.69;29373;323;63009;-54
2023/11/30 00:46:14;;;;;;;0.62;0.62;;;;;;;-0.04;89.91;95526.63;29373;225;63000;-54
2023/11/30 00:46:46;;;;;;;0.70;0.70;;;;;;;-0.05;90.00;95523.16;29373;234;63009;-70
2023/11/30 00:47:17;;;;;;;0.60;0.60;;;;;;;-0.05;90.08;95525.00;29395;226;63007;-55
2023/11/30 00:47:48;;;;;;;1.25;1.25;;;;;;;-0.04;90.26;95519.44;29395;210;63009;-70
2023/11/30 00:48:20;;;;;;;0.70;0.70;;;;;;;-0.05;89.73;95520.47;29395;279;63004;-54
2023/11/30 00:48:52;;;;;;;0.70;0.70;;;;;;;-0.05;90.16;95520.47;29394;202;64013;-54
2023/11/30 00:49:23;;;;;;;0.70;0.70;;;;;;;-0.05;89.98;95519.69;29373;202;63004;-53
2023/11/30 00:49:54;;;;;;;0.70;0.70;;;;;;;-0.05;89.98;95525.00;29395;215;63008;-54
2023/11/30 00:50:26;;;;;;;1.00;1.00;;;;;;;-0.04;90.31;95524.75;29395;215;63005;-72
2023/11/30 00:50:57;;;;;;;0.70;0.70;;;;;;;-0.05;90.01;95515.16;29395;207;63009;-53
2023/11/30 00:51:30;;;;;;;0.70;0.70;;;;;;;-0.03;89.96;95522.91;29395;228;63005;-54
2023/11/30 00:52:01;;;;;;;0.80;0.80;;;;;;;-0.02;90.33;95519.97;29395;202;63009;-54
2023/11/30 00:52:36;;;;;;;0.60;0.60;;;;;;;0.00;89.67;95509.81;29395;234;63005;-53
2023/11/30 00:53:08;;;;;;;0.70;0.70;;;;;;;0.02;89.42;95514.09;29395;216;63009;-54
2023/11/30 00:53:43;;;;;;;0.60;0.60;;;;;;;0.02;89.85;95514.09;29395;234;63005;-71
2023/11/30 00:54:14;;;;;;;0.70;0.70;;;;;;;0.03;89.80;95513.03;29394;212;64013;-54
2023/11/30 00:54:45;;;;;;;0.60;0.60;;;;;;;0.05;89.72;95513.56;29395;206;63004;-54
2023/11/30 00:55:16;;;;;;;0.60;0.60;;;;;;;0.05;89.52;95510.91;29395;225;63009;-54
2023/11/30 00:55:47;;;;;;;0.60;0.60;;;;;;;0.04;89.57;95512.78;29395;232;63004;-54
2023/11/30 00:56:18;;;;;;;0.60;0.60;;;;;;;0.04;89.40;95514.63;29395;244;63009;-54
2023/11/30 00:56:50;;;;;;;0.70;0.70;;;;;;;0.03;89.13;95510.38;29395;231;63004;-54
2023/11/30 00:57:21;;;;;;;0.70;0.70;;;;;;;0.03;89.22;95505.03;29395;210;63004;-54
2023/11/30 00:57:53;;;;;;;0.70;0.70;;;;;;;0.04;88.94;95507.44;29395;270;63004;-54
2023/11/30 00:58:24;;;;;;;0.70;0.70;;;;;;;0.04;89.09;95502.09;29373;209;63009;-54
2023/11/30 00:58:55;;;;;;;0.60;0.60;;;;;;;0.05;89.00;95502.91;29373;235;63005;-54
2023/11/30 00:59:26;;;;;;;0.65;0.65;;;;;;;0.03;88.99;95499.69;29371;294;64014;-54
2023/11/30 01:00:00;;;;;;;0.60;0.60;;;;;;;0.04;89.09;95506.63;29373;203;63005;-54
2023/11/30 01:00:31;;;;;;;0.60;0.60;;;;;;;0.03;89.42;95505.03;29373;198;63009;-54
2023/11/30 01:01:03;;;;;;;0.70;0.70;;;;;;;0.02;89.38;95514.09;29373;202;63005;-55
2023/11/30 01:01:34;;;;;;;0.70;0.70;;;;;;;0.00;89.59;95507.16;29373;280;63009;-54
2023/11/30 01:02:05;;;;;;;0.62;0.62;;;;;;;-0.01;90.02;95512.78;29395;203;63012;-54
2023/11/30 01:02:40;;;;;;;0.65;0.65;;;;;;;-0.02;90.09;95509.31;29373;329;63009;-54
2023/11/30 01:03:11;;;;;;;0.60;0.60;;;;;;;-0.03;90.58;95522.91;29373;385;63004;-71
2023/11/30 01:03:43;;;;;;;0.60;0.60;;;;;;;-0.05;90.77;95519.69;29373;316;63009;-54
2023/11/30 01:04:14;;;;;;;0.60;0.60;;;;;;;-0.07;90.90;95516.47;29373;223;63004;-54
2023/11/30 01:04:45;;;;;;;0.70;0.70;;;;;;;-0.07;90.74;95517.28;29371;232;64013;-54
2023/11/30 01:05:16;;;;;;;0.60;0.60;;;;;;;-0.07;91.03;95514.59;29373;272;63004;-54
2023/11/30 01:05:48;;;;;;;0.60;0.60;;;;;;;-0.08;90.47;95521.00;29373;202;63009;-54
2023/11/30 01:06:19;;;;;;;0.70;0.70;;;;;;;-0.09;90.95;95522.06;29373;249;63005;-55
2023/11/30 01:06:51;;;;;;;0.70;0.70;;;;;;;-0.08;90.90;95518.34;29373;237;63009;-54
2023/11/30 01:07:22;;;;;;;0.70;0.70;;;;;;;-0.10;90.41;95517.78;29395;199;63015;-54
2023/11/30 01:07:53;;;;;;;0.70;0.70;;;;;;;-0.10;90.49;95517.78;29373;297;63009;-54
2023/11/30 01:08:25;;;;;;;0.65;0.65;;;;;;;-0.10;90.47;95517.78;29373;232;63005;-54
2023/11/30 01:08:56;;;;;;;0.70;0.70;;;;;;;-0.11;90.46;95520.72;29395;244;63009;-54
2023/11/30 01:09:27;;;;;;;0.70;0.70;;;;;;;-0.13;90.47;95518.31;29395;292;63005;-54
2023/11/30 01:09:59;;;;;;;0.70;0.70;;;;;;;-0.13;90.31;95523.62;29394;202;64013;-54
2023/11/30 01:10:30;;;;;;;0.70;0.70;;;;;;;-0.13;90.58;95520.97;29373;229;63015;-54
2023/11/30 01:11:06;;;;;;;0.70;0.70;;;;;;;-0.12;90.85;95519.09;29395;223;63023;-54
2023/11/30 01:11:42;;;;;;;0.60;0.60;;;;;;;-0.13;90.54;95523.62;29373;302;63010;-54
2023/11/30 01:12:14;;;;;;;0.70;0.70;;;;;;;-0.14;90.78;95521.22;29373;202;63008;-54
2023/11/30 01:12:46;;;;;;;0.60;0.60;;;;;;;-0.16;90.80;95524.16;29373;254;63004;-54
2023/11/30 01:13:17;;;;;;;0.70;0.70;;;;;;;-0.15;91.04;95523.09;29395;203;63009;-54
2023/11/30 01:13:48;;;;;;;0.70;0.70;;;;;;;-0.16;91.17;95523.34;29395;245;63010;-54
2023/11/30 01:14:19;;;;;;;0.60;0.60;;;;;;;-0.16;90.76;95532.16;29373;203;63009;-54
2023/11/30 01:14:50;;;;;;;0.60;0.60;;;;;;;-0.17;91.21;95525.22;29373;227;63005;-54
2023/11/30 01:15:22;;;;;;;0.70;0.70;;;;;;;-0.16;91.17;95534.81;29371;200;64013;-55
2023/11/30 01:15:53;;;;;;;0.70;0.70;;;;;;;-0.17;91.13;95532.41;29395;202;63005;-54
2023/11/30 01:16:24;;;;;;;0.70;0.70;;;;;;;-0.17;91.37;95535.88;29373;313;63009;-54
2023/11/30 01:16:55;;;;;;;0.80;0.80;;;;;;;-0.17;91.48;95529.75;29373;206;63011;-54
2023/11/30 01:17:26;;;;;;;0.70;0.70;;;;;;;-0.17;91.55;95533.22;29373;279;63009;-54
2023/11/30 01:17:58;;;;;;;0.60;0.60;;;;;;;-0.17;92.22;95527.06;29373;280;63004;-73
2023/11/30 01:18:29;;;;;;;0.60;0.60;;;;;;;-0.18;91.89;95528.94;29373;274;63009;-54
2023/11/30 01:19:02;;;;;;;0.70;0.70;;;;;;;-0.19;91.76;95535.31;29395;215;63005;-54
2023/11/30 01:19:34;;;;;;;0.70;0.70;;;;;;;-0.20;92.17;95539.06;29373;285;63009;-54
2023/11/30 01:20:08;;;;;;;0.70;0.70;;;;;;;-0.21;91.94;95532.13;29373;235;63004;-54
2023/11/30 01:20:39;;;;;;;0.70;0.70;;;;;;;-0.19;91.88;95529.19;29371;307;64014;-55
2023/11/30 01:21:10;;;;;;;1.12;1.12;;;;;;;-0.17;91.61;95532.41;29373;229;63005;-54
2023/11/30 01:21:42;;;;;;;0.70;0.70;;;;;;;-0.18;91.66;95536.94;29373;200;63009;-55
2023/11/30 01:22:13;;;;;;;0.70;0.70;;;;;;;-0.17;92.01;95538.53;29373;338;63007;-54
2023/11/30 01:22:44;;;;;;;0.60;0.60;;;;;;;-0.15;91.65;95535.63;29373;285;63013;-54
2023/11/30 01:23:15;;;;;;;0.70;0.70;;;;;;;-0.16;91.32;95534.81;29373;277;63005;-53
2023/11/30 01:23:47;;;;;;;0.70;0.70;;;;;;;-0.16;91.65;95532.16;29372;237;63009;-55
2023/11/30 01:24:18;;;;;;;0.60;0.60;;;;;;;-0.15;91.60;95530.28;29373;336;63009;-54
2023/11/30 01:24:49;;;;;;;0.70;0.70;;;;;;;-0.16;91.50;95529.47;29373;230;63013;-54
2023/11/30 01:25:21;;;;;;;0.70;0.70;;;;;;;-0.16;91.36;95534.81;29373;230;63004;-54
2023/11/30 01:25:55;;;;;;;0.70;0.70;;;;;;;-0.15;91.43;95528.44;29371;268;64013;-54
2023/11/30 01:26:30;;;;;;;0.70;0.70;;;;;;;-0.16;91.24;95532.16;29373;196;63004;-54
2023/11/30 01:27:01;;;;;;;0.68;0.68;;;;;;;-0.16;91.11;95524.16;29373;299;63009;-72
2023/11/30 01:27:32;;;;;;;1.35;1.35;;;;;;;-0.17;91.31;95530.53;29373;202;63004;-70
2023/11/30 01:28:07;;;;;;;0.62;0.62;;;;;;;-0.17;91.58;95525.22;29373;201;63008;-54
2023/11/30 01:28:38;;;;;;;0.70;0.70;;;;;;;-0.19;91.31;95514.00;29373;285;63017;-54
2023/11/30 01:29:10;;;;;;;0.68;0.68;;;;;;;-0.20;91.28;95531.06;29373;320;63009;-53
2023/11/30 01:29:41;;;;;;;0.60;0.60;;;;;;;-0.19;91.51;95519.34;29372;263;64005;-54
2023/11/30 01:30:14;;;;;;;0.70;0.70;;;;;;;-0.20;91.71;95523.06;29373;338;63009;-53
2023/11/30 01:30:45;;;;;;;0.70;0.70;;;;;;;-0.21;91.09;95516.12;29373;298;63005;-54
2023/11/30 01:31:16;;;;;;;0.70;0.70;;;;;;;-0.22;91.46;95514.50;29371;255;64013;-54
2023/11/30 01:31:48;;;;;;;0.62;0.62;;;;;;;-0.21;91.09;95520.66;29373;323;63004;-54
2023/11/30 01:32:19;;;;;;;0.65;0.65;;;;;;;-0.22;91.44;95519.84;29373;330;63009;-71
2023/11/30 01:32:50;;;;;;;0.70;0.70;;;;;;;-0.22;91.48;95513.72;29373;242;63004;-54
2023/11/30 01:33:21;;;;;;;0.70;0.70;;;;;;;-0.23;91.44;95518.25;29373;222;63020;-54
2023/11/30 01:33:52;;;;;;;0.70;0.70;;;;;;;-0.23;91.35;95512.91;29373;295;63004;-54
2023/11/30 01:34:27;;;;;;;0.60;0.60;;;;;;;-0.25;91.39;95515.03;29373;308;63008;-73
2023/11/30 01:34:58;;;;;;;0.60;0.60;;;;;;;-0.26;91.18;95512.63;29373;296;63000;-54
2023/11/30 01:35:29;;;;;;;0.70;0.70;;;;;;;-0.28;91.25;95512.06;29373;256;63008;-54
2023/11/30 01:36:00;;;;;;;0.65;0.65;;;;;;;-0.30;91.98;95509.66;29373;203;63005;-54
2023/11/30 01:36:32;;;;;;;0.70;0.70;;;;;;;-0.31;91.73;95508.06;29371;300;64013;-54
2023/11/30 01:37:06;;;;;;;0.70;0.70;;;;;;;-0.30;91.49;95506.19;29373;311;63005;-54
2023/11/30 01:37:40;;;;;;;0.70;0.70;;;;;;;-0.32;91.86;95511.78;29371;219;64013;-54
2023/11/30 01:38:11;;;;;;;0.70;0.70;;;;;;;-0.34;92.13;95511.25;29373;232;63005;-54
2023/11/30 01:38:42;;;;;;;0.70;0.70;;;;;;;-0.36;92.02;95510.72;29373;202;63019;-54
2023/11/30 01:39:15;;;;;;;0.70;0.70;;;;;;;-0.37;92.25;95507.25;29373;326;63004;-54
2023/11/30 01:39:50;;;;;;;0.70;0.70;;;;;;;-0.37;91.83;95509.91;29373;317;63028;-54
2023/11/30 01:40:26;;;;;;;0.70;0.70;;;;;;;-0.37;91.96;95512.59;29373;329;63004;-54
2023/11/30 01:40:58;;;;;;;0.70;0.70;;;;;;;-0.37;92.14;95511.78;29373;202;63009;-54
2023/11/30 01:41:29;;;;;;;0.60;0.60;;;;;;;-0.37;91.72;95511.78;29373;199;63004;-54
2023/11/30 01:42:00;;;;;;;0.70;0.70;;;;;;;-0.39;92.07;95508.56;29373;231;63008;-54
2023/11/30 01:42:32;;;;;;;0.65;0.65;;;;;;;-0.40;91.74;95512.28;29373;247;63005;-54
2023/11/30 01:43:06;;;;;;;0.70;0.70;;;;;;;-0.40;92.21;95515.75;29371;316;64014;-54
2023/11/30 01:43:37;;;;;;;0.60;0.60;;;;;;;-0.40;92.17;95512.28;29373;204;63005;-54
2023/11/30 01:44:09;;;;;;;0.60;0.60;;;;;;;-0.41;92.31;95510.69;29373;329;63009;-54
2023/11/30 01:44:40;;;;;;;0.68;0.68;;;;;;;-0.42;92.04;95514.41;29373;218;63005;-54
2023/11/30 01:45:11;;;;;;;0.65;0.65;;;;;;;-0.42;91.99;95519.75;29373;204;63009;-54
2023/11/30 01:45:42;;;;;;;0.70;0.70;;;;;;;-0.42;92.32;95514.41;29373;263;63005;-54
2023/11/30 01:46:14;;;;;;;0.60;0.60;;;;;;;-0.43;91.96;95512.81;29373;197;63009;-54
2023/11/30 01:46:45;;;;;;;0.70;0.70;;;;;;;-0.43;92.16;95518.13;29373;236;63004;-54
2023/11/30 01:47:17;;;;;;;0.60;0.60;;;;;;;-0.42;92.05;95517.06;29373;212;63009;-54
2023/11/30 01:47:48;;;;;;;0.60;0.60;;;;;;;-0.40;92.00;95518.44;29373;534;63004;-54
2023/11/30 01:48:20;;;;;;;0.60;0.60;;;;;;;-0.39;92.13;95513.91;29371;230;64013;-54
2023/11/30 01:48:52;;;;;;;0.60;0.60;;;;;;;-0.39;91.69;95519.22;29373;232;63004;-54
2023/11/30 01:49:23;;;;;;;0.62;0.62;;;;;;;-0.37;91.83;95511.78;29373;335;63024;-54
2023/11/30 01:49:55;;;;;;;0.68;0.68;;;;;;;-0.30;90.87;95506.19;29373;244;63004;-55
2023/11/30 01:50:26;;;;;;;2.05;1.50;;;;;;;-0.24;90.32;95505.16;29373;203;63009;-54
2023/11/30 01:50:59;;;;;;;0.70;0.70;;;;;;;-0.20;89.98;95511.59;29373;307;63005;-54
2023/11/30 01:51:31;;;;;;;0.60;0.60;;;;;;;-0.15;89.40;95501.75;29373;281;63005;-54
2023/11/30 01:52:04;;;;;;;0.70;0.70;;;;;;;-0.11;88.58;95500.19;29373;214;63012;-54
2023/11/30 01:52:36;;;;;;;0.70;0.70;;;;;;;-0.11;88.62;95500.19;29371;220;64007;-54
2023/11/30 01:53:08;;;;;;;0.70;0.70;;;;;;;-0.11;88.44;95504.72;29373;323;63005;-54
2023/11/30 01:53:40;;;;;;;0.60;0.60;;;;;;;-0.13;88.73;95496.19;29373;207;63026;-54
2023/11/30 01:54:12;;;;;;;0.70;0.70;;;;;;;-0.14;88.35;95499.91;29373;323;63004;-54
2023/11/30 01:54:44;;;;;;;0.70;0.70;;;;;;;-0.14;88.61;95494.56;29373;214;63009;-54
2023/11/30 01:55:16;;;;;;;0.70;0.70;;;;;;;-0.13;88.25;95502.31;29373;262;63004;-54
2023/11/30 01:55:48;;;;;;;0.70;0.70;;;;;;;-0.12;88.50;95495.91;29373;203;63009;-54
2023/11/30 01:56:21;;;;;;;0.70;0.70;;;;;;;-0.13;88.25;95491.66;29373;199;63004;-54
2023/11/30 01:56:53;;;;;;;0.70;0.70;;;;;;;-0.13;88.27;95491.66;29373;237;63008;-54
2023/11/30 01:57:24;;;;;;;0.70;0.70;;;;;;;-0.14;88.04;95490.03;29373;276;63015;-54
2023/11/30 01:57:57;;;;;;;0.70;0.70;;;;;;;-0.10;87.71;95483.13;29371;210;64014;-68
2023/11/30 01:58:29;;;;;;;0.70;0.70;;;;;;;-0.07;87.71;95485.28;29373;266;63011;-54
2023/11/30 01:59:03;;;;;;;0.68;0.68;;;;;;;-0.09;87.64;95484.75;29373;258;63009;-54
2023/11/30 01:59:34;;;;;;;0.62;0.62;;;;;;;-0.07;87.68;95485.28;29373;300;63005;-54
2023/11/30 02:00:09;;;;;;;1.12;1.12;;;;;;;-0.07;87.42;95484.47;29373;200;63019;-53
2023/11/30 02:00:41;;;;;;;0.70;0.70;;;;;;;-0.10;87.17;95480.47;29373;232;63005;-54
2023/11/30 02:01:13;;;;;;;0.60;0.60;;;;;;;-0.12;87.57;95481.78;29395;208;63009;-54
2023/11/30 02:01:45;;;;;;;0.65;0.65;;;;;;;-0.10;87.23;95479.66;29373;267;63004;-54
2023/11/30 02:02:18;;;;;;;0.70;0.70;;;;;;;-0.09;87.30;95476.75;29373;322;63009;-54
2023/11/30 02:02:49;;;;;;;0.62;0.62;;;;;;;-0.09;87.18;95482.06;29373;291;63004;-54
2023/11/30 02:03:22;;;;;;;0.60;0.60;;;;;;;-0.11;86.90;95480.72;29371;240;64013;-54
2023/11/30 02:03:54;;;;;;;0.70;0.70;;;;;;;-0.14;87.30;95483.91;29373;304;63014;-54
2023/11/30 02:04:30;;;;;;;0.70;0.70;;;;;;;-0.18;87.50;95478.28;29373;313;63022;-54
2023/11/30 02:05:02;;;;;;;0.60;0.60;;;;;;;-0.20;87.65;95495.59;29373;196;63004;-54
2023/11/30 02:05:33;;;;;;;0.60;0.60;;;;;;;-0.21;88.06;95491.31;29373;314;63016;-73
2023/11/30 02:06:06;;;;;;;0.70;0.70;;;;;;;-0.23;88.38;95488.91;29373;291;63005;-54
2023/11/30 02:06:37;;;;;;;0.70;0.70;;;;;;;-0.25;88.31;95493.72;29373;220;63017;-54
2023/11/30 02:07:09;;;;;;;0.60;0.60;;;;;;;-0.24;88.38;95497.19;29373;341;63005;-54
2023/11/30 02:07:40;;;;;;;0.70;0.70;;;;;;;-0.24;88.57;95495.31;29373;232;63009;-53
2023/11/30 02:08:12;;;;;;;0.70;0.70;;;;;;;-0.24;88.77;95500.62;29373;258;63009;-53
2023/11/30 02:08:43;;;;;;;0.70;0.70;;;;;;;-0.25;88.86;95493.72;29371;211;64013;-54
2023/11/30 02:09:15;;;;;;;0.70;0.70;;;;;;;-0.25;88.99;95499.03;29373;339;63004;-54
2023/11/30 02:09:46;;;;;;;0.65;0.65;;;;;;;-0.23;88.58;95491.59;29373;324;63009;-71
2023/11/30 02:10:18;;;;;;;0.70;0.70;;;;;;;-0.22;88.39;95493.19;29373;259;63004;-55
2023/11/30 02:10:50;;;;;;;0.60;0.60;;;;;;;-0.20;88.18;95482.28;29373;223;63009;-54
2023/11/30 02:11:23;;;;;;;0.60;0.60;;;;;;;-0.18;88.17;95472.97;29373;270;63010;-53
2023/11/30 02:11:55;;;;;;;0.70;0.70;;;;;;;-0.15;87.79;95472.44;29373;206;63008;-54
2023/11/30 02:12:26;;;;;;;0.60;0.60;;;;;;;-0.13;87.30;95464.97;29373;199;63004;-54
2023/11/30 02:12:57;;;;;;;0.70;0.70;;;;;;;-0.11;87.34;95464.72;29373;250;63009;-54
2023/11/30 02:13:29;;;;;;;0.70;0.70;;;;;;;-0.12;87.34;95461.25;29373;278;63005;-54
2023/11/30 02:14:03;;;;;;;0.70;0.70;;;;;;;-0.14;87.05;95455.38;29371;221;64014;-54
2023/11/30 02:14:35;;;;;;;0.70;0.70;;;;;;;-0.14;87.14;95458.03;29395;306;63005;-54
2023/11/30 02:15:07;;;;;;;0.60;0.60;;;;;;;-0.14;87.50;95468.72;29373;202;63009;-54
2023/11/30 02:15:39;;;;;;;0.60;0.60;;;;;;;-0.16;87.40;95460.16;29373;266;63005;-55
2023/11/30 02:16:11;;;;;;;0.70;0.70;;;;;;;-0.17;87.35;95460.44;29373;298;63009;-54
2023/11/30 02:16:42;;;;;;;0.60;0.60;;;;;;;-0.17;87.51;95463.09;29373;199;63008;-54
2023/11/30 02:17:16;;;;;;;0.70;0.70;;;;;;;-0.18;87.47;95461.50;29372;285;64009;-54
2023/11/30 02:17:47;;;;;;;0.60;0.60;;;;;;;-0.21;87.49;95457.47;29372;219;63004;-54
2023/11/30 02:18:18;;;;;;;0.68;0.68;;;;;;;-0.23;87.45;95454.25;29373;205;63009;-54
2023/11/30 02:18:49;;;;;;;0.70;0.70;;;;;;;-0.23;87.96;95451.59;29373;255;63011;-54
2023/11/30 02:19:21;;;;;;;0.68;0.68;;;;;;;-0.24;87.57;95447.34;29371;253;64013;-55
2023/11/30 02:19:52;;;;;;;0.80;0.80;;;;;;;-0.27;88.06;95442.50;29373;233;63004;-55
2023/11/30 02:20:23;;;;;;;0.70;0.70;;;;;;;-0.27;88.33;95447.84;29395;213;63012;-54
2023/11/30 02:20:55;;;;;;;0.70;0.70;;;;;;;-0.26;88.42;95441.47;29373;231;63005;-54
2023/11/30 02:21:26;;;;;;;0.70;0.70;;;;;;;-0.25;88.50;95440.41;29373;219;63009;-54
2023/11/30 02:21:57;;;;;;;0.70;0.70;;;;;;;-0.20;87.84;95436.94;29373;199;63005;-54
2023/11/30 02:22:28;;;;;;;0.70;0.70;;;;;;;-0.20;87.70;95437.75;29373;231;63009;-54
2023/11/30 02:22:59;;;;;;;0.70;0.70;;;;;;;-0.22;87.66;95434.53;29395;220;63005;-54
2023/11/30 02:23:31;;;;;;;0.68;0.68;;;;;;;-0.26;88.96;95433.47;29395;227;63009;-72
2023/11/30 02:24:03;;;;;;;0.70;0.70;;;;;;;-0.32;89.48;95439.81;29395;227;63005;-54
2023/11/30 02:24:34;;;;;;;0.70;0.70;;;;;;;-0.35;89.31;95448.38;29371;237;64013;-55
2023/11/30 02:25:07;;;;;;;0.60;0.60;;;;;;;-0.37;89.17;95442.50;29373;294;63004;-54
2023/11/30 02:25:38;;;;;;;0.60;0.60;;;;;;;-0.38;89.13;95446.22;29373;199;63015;-54
2023/11/30 02:26:10;;;;;;;0.60;0.60;;;;;;;-0.38;89.26;95446.22;29395;208;63009;-54
2023/11/30 02:26:41;;;;;;;0.60;0.60;;;;;;;-0.40;89.30;95449.13;29373;233;63008;-54
2023/11/30 02:27:13;;;;;;;0.70;0.70;;;;;;;-0.43;89.83;95454.97;29373;233;63004;-54
2023/11/30 02:27:44;;;;;;;0.70;0.70;;;;;;;-0.44;90.47;95463.22;29373;206;63018;-54
2023/11/30 02:28:19;;;;;;;0.70;0.70;;;;;;;-0.49;91.06;95471.19;29373;198;63005;-54
2023/11/30 02:28:50;;;;;;;0.60;0.60;;;;;;;-0.51;91.49;95462.66;29373;326;63009;-54
2023/11/30 02:29:21;;;;;;;0.70;0.70;;;;;;;-0.53;91.64;95470.09;29373;313;63005;-54
2023/11/30 02:29:52;;;;;;;0.70;0.70;;;;;;;-0.54;91.59;95463.16;29371;202;64013;-54
2023/11/30 02:30:24;;;;;;;0.70;0.70;;;;;;;-0.54;91.74;95468.50;29373;199;63005;-73
2023/11/30 02:30:55;;;;;;;0.68;0.68;;;;;;;-0.57;91.97;95466.34;29373;350;63028;-54
2023/11/30 02:31:26;;;;;;;0.65;0.65;;;;;;;-0.60;92.17;95466.84;29373;204;63009;-54
2023/11/30 02:31:58;;;;;;;0.70;0.70;;;;;;;-0.60;91.99;95469.50;29373;199;63009;-54
2023/11/30 02:32:29;;;;;;;0.70;0.70;;;;;;;-0.61;92.47;95474.03;29373;358;63004;-54
2023/11/30 02:33:01;;;;;;;0.70;0.70;;;;;;;-0.60;92.13;95458.84;29373;266;63009;-54